Time;durP1;ratioP1;P1;durP2;ratioP2;P2;SDS_P1;SDS_P2;PMS_P1;PMS_P2;Temp;Humidity;BMP_temperature;BMP_pressure;BME280_temperature;BME280_humidity;BME280_pressure;Samples;Min_cycle;Max_cycle;Signal;HPM_P1;HPM_P2
2023/10/08 00:01:34;;;;;;;6.18;3.10;;;;;;;-146.35;100.00;61140.38;5024279;28;21441;-45
2023/10/08 00:04:03;;;;;;;7.43;3.15;;;;;;;-146.35;100.00;61140.38;5024054;28;20090;-44
2023/10/08 00:06:30;;;;;;;6.25;3.40;;;;;;;-146.35;100.00;61140.38;5023613;28;20484;-44
2023/10/08 00:08:59;;;;;;;8.13;3.67;;;;;;;-146.35;100.00;61140.38;5022796;28;20047;-45
2023/10/08 00:11:31;;;;;;;7.95;3.65;;;;;;;-146.35;100.00;61140.38;5023921;28;20045;-45
2023/10/08 00:13:56;;;;;;;8.15;3.67;;;;;;;-146.35;100.00;61140.38;5023468;28;20175;-45
2023/10/08 00:16:22;;;;;;;7.57;3.42;;;;;;;-146.35;100.00;61140.38;5023086;28;20082;-43
2023/10/08 00:18:51;;;;;;;6.63;3.33;;;;;;;-146.35;100.00;61140.38;5021566;28;20114;-45
2023/10/08 00:21:26;;;;;;;7.43;3.78;;;;;;;-146.35;100.00;61140.38;5023207;28;20041;-46
2023/10/08 00:23:57;;;;;;;11.00;3.65;;;;;;;-146.35;100.00;61140.38;5023365;28;20473;-44
2023/10/08 00:26:32;;;;;;;8.68;3.55;;;;;;;-146.35;100.00;61140.38;5023782;28;20567;-44
2023/10/08 00:29:00;;;;;;;7.82;3.55;;;;;;;-146.35;100.00;61140.38;5022495;28;20545;-44
2023/10/08 00:31:40;;;;;;;8.23;3.40;;;;;;;-146.35;100.00;61140.38;5029190;28;20496;-46
2023/10/08 00:34:08;;;;;;;8.82;3.10;;;;;;;-146.35;100.00;61140.38;5022405;28;20051;-44
2023/10/08 00:36:34;;;;;;;8.02;3.70;;;;;;;-146.35;100.00;61140.38;5021210;28;20473;-45
2023/10/08 00:39:00;;;;;;;7.63;3.38;;;;;;;-146.35;100.00;61140.38;5022499;28;20055;-44
2023/10/08 00:41:30;;;;;;;5.72;3.20;;;;;;;-146.35;100.00;61140.38;5022378;28;20032;-44
2023/10/08 00:43:59;;;;;;;6.30;3.10;;;;;;;-146.35;100.00;61140.38;5022222;28;20105;-44
2023/10/08 00:46:26;;;;;;;6.40;3.20;;;;;;;-146.35;100.00;61140.38;5018937;28;20024;-44
2023/10/08 00:48:56;;;;;;;9.15;3.40;;;;;;;-146.35;100.00;61140.38;5018878;28;20033;-44
2023/10/08 00:54:05;;;;;;;7.70;3.20;;;;;;;-146.35;100.00;61140.38;5037889;28;20041;-46
2023/10/08 00:59:20;;;;;;;7.47;3.20;;;;;;;-146.35;100.00;61140.38;5022270;28;20071;-44
2023/10/08 01:01:51;;;;;;;7.60;3.42;;;;;;;-146.35;100.00;61140.38;5022787;28;20028;-44
2023/10/08 01:04:23;;;;;;;5.75;3.13;;;;;;;-146.35;100.00;61140.38;5021240;28;20107;-43
2023/10/08 01:06:54;;;;;;;7.32;3.15;;;;;;;-146.35;100.00;61140.38;5022596;28;20040;-44
2023/10/08 01:09:22;;;;;;;7.25;3.20;;;;;;;-146.35;100.00;61140.38;5021764;28;20071;-44
2023/10/08 01:12:07;;;;;;;7.53;3.80;;;;;;;-146.35;100.00;61140.38;5022104;28;20163;-45
2023/10/08 01:14:32;;;;;;;6.38;3.22;;;;;;;-146.35;100.00;61140.38;5019120;28;20926;-44
2023/10/08 01:16:58;;;;;;;7.63;3.45;;;;;;;-146.35;100.00;61140.38;5020444;28;20075;-46
2023/10/08 01:19:25;;;;;;;8.00;3.60;;;;;;;-146.35;100.00;61140.38;5021324;28;20037;-43
2023/10/08 01:21:51;;;;;;;11.00;3.97;;;;;;;-146.35;100.00;61140.38;5021401;28;20131;-44
2023/10/08 01:24:17;;;;;;;6.75;3.40;;;;;;;-146.35;100.00;61140.38;5054202;28;20043;-44
2023/10/08 01:26:45;;;;;;;7.72;3.58;;;;;;;-146.35;100.00;61140.38;5037394;28;20049;-47
2023/10/08 01:29:18;;;;;;;5.15;3.17;;;;;;;-146.35;100.00;61140.38;5021555;28;20052;-43
2023/10/08 01:31:53;;;;;;;8.55;3.55;;;;;;;-146.35;100.00;61140.38;5021998;28;20719;-46
2023/10/08 01:34:18;;;;;;;6.25;3.08;;;;;;;-146.35;100.00;61140.38;5022248;28;20123;-45
2023/10/08 01:36:44;;;;;;;8.77;3.42;;;;;;;-146.35;100.00;61140.38;5053482;28;20037;-45
2023/10/08 01:39:15;;;;;;;6.97;3.50;;;;;;;-146.35;100.00;61140.38;5022155;28;20502;-45
2023/10/08 01:41:42;;;;;;;;;;;;;;;-146.35;100.00;61140.38;5022388;28;20037;-45
2023/10/08 01:44:08;;;;;;;6.65;3.35;;;;;;;-146.35;100.00;61140.38;5021303;28;19986;-43
2023/10/08 01:46:34;;;;;;;6.80;3.58;;;;;;;-146.35;100.00;61140.38;5020299;28;20488;-45
2023/10/08 01:49:04;;;;;;;6.35;3.08;;;;;;;-146.35;100.00;61140.38;5021284;28;20586;-45
2023/10/08 01:51:49;;;;;;;7.18;3.50;;;;;;;-146.35;100.00;61140.38;5021178;28;20064;-42
2023/10/08 01:54:17;;;;;;;7.47;3.10;;;;;;;-146.35;100.00;61140.38;5022256;28;20037;-44
2023/10/08 01:56:43;;;;;;;8.07;3.35;;;;;;;-146.35;100.00;61140.38;5022117;28;20051;-45
2023/10/08 01:59:14;;;;;;;7.05;3.30;;;;;;;-146.35;100.00;61140.38;5022451;28;20104;-45
2023/10/08 02:01:40;;;;;;;7.35;3.42;;;;;;;-146.35;100.00;61140.38;5020661;28;20697;-45
2023/10/08 02:04:07;;;;;;;7.25;3.38;;;;;;;-146.35;100.00;61140.38;5036090;28;20064;-46
2023/10/08 02:06:33;;;;;;;7.03;3.35;;;;;;;-146.35;100.00;61140.38;5054031;28;20037;-43
2023/10/08 02:08:59;;;;;;;7.22;3.72;;;;;;;-146.35;100.00;61140.38;5021282;28;20117;-43
2023/10/08 02:11:27;;;;;;;8.80;3.45;;;;;;;-146.35;100.00;61140.38;5070735;27;20038;-45
2023/10/08 02:13:52;;;;;;;7.03;3.63;;;;;;;-146.35;100.00;61140.38;5021972;28;20673;-46
2023/10/08 02:16:19;;;;;;;8.30;3.75;;;;;;;-146.35;100.00;61140.38;5021497;28;20566;-44
2023/10/08 02:18:46;;;;;;;8.02;3.47;;;;;;;-146.35;100.00;61140.38;5036593;28;21816;-47
2023/10/08 02:21:11;;;;;;;6.53;3.40;;;;;;;-146.35;100.00;61140.38;5053500;28;20170;-46
2023/10/08 02:23:37;;;;;;;7.47;3.58;;;;;;;-146.35;100.00;61140.38;5020618;28;20816;-44
2023/10/08 02:26:02;;;;;;;6.93;3.38;;;;;;;-146.35;100.00;61140.38;5022147;28;20066;-45
2023/10/08 02:28:28;;;;;;;6.70;3.40;;;;;;;-146.35;100.00;61140.38;5017250;28;20057;-46
2023/10/08 02:30:54;;;;;;;7.18;3.45;;;;;;;-146.35;100.00;61140.38;5025076;28;20353;-44
2023/10/08 02:33:19;;;;;;;6.28;3.40;;;;;;;-146.35;100.00;61140.38;5022977;28;20165;-45
2023/10/08 02:35:47;;;;;;;6.25;3.28;;;;;;;-146.35;100.00;61140.38;5025230;28;20468;-48
2023/10/08 02:38:18;;;;;;;7.82;3.70;;;;;;;-146.35;100.00;61140.38;5025462;28;20544;-44
2023/10/08 02:40:47;;;;;;;6.43;3.35;;;;;;;-146.35;100.00;61140.38;5025053;28;20032;-45
2023/10/08 02:43:16;;;;;;;8.00;3.85;;;;;;;-146.35;100.00;61140.38;5024855;28;20040;-45
2023/10/08 02:45:47;;;;;;;9.02;3.50;;;;;;;-146.35;100.00;61140.38;5025031;28;20333;-46
2023/10/08 02:48:13;;;;;;;7.75;3.72;;;;;;;-146.35;100.00;61140.38;5057075;28;20604;-44
2023/10/08 02:50:42;;;;;;;7.07;3.53;;;;;;;-146.35;100.00;61140.38;5023008;28;20064;-46
2023/10/08 02:53:11;;;;;;;7.32;3.92;;;;;;;-146.35;100.00;61140.38;5024208;28;20313;-46
2023/10/08 02:55:46;;;;;;;6.75;3.45;;;;;;;-146.35;100.00;61140.38;5023888;28;20475;-46
2023/10/08 02:58:14;;;;;;;7.13;3.67;;;;;;;-146.35;100.00;61140.38;5024262;28;20036;-42
2023/10/08 03:00:41;;;;;;;7.07;3.60;;;;;;;-146.35;100.00;61140.38;5023973;28;20705;-44
2023/10/08 03:03:15;;;;;;;7.50;3.60;;;;;;;-146.35;100.00;61140.38;5024186;28;20404;-44
2023/10/08 03:05:43;;;;;;;7.25;3.72;;;;;;;-146.35;100.00;61140.38;5024557;28;20249;-46
2023/10/08 03:08:10;;;;;;;6.20;3.13;;;;;;;-146.35;100.00;61140.38;5024972;28;20478;-46
2023/10/08 03:10:37;;;;;;;6.57;3.50;;;;;;;-146.35;100.00;61140.38;5024580;28;20064;-45
2023/10/08 03:13:05;;;;;;;7.93;3.90;;;;;;;-146.35;100.00;61140.38;5024785;28;20142;-43
2023/10/08 03:15:37;;;;;;;9.15;3.85;;;;;;;-146.35;100.00;61140.38;5039297;28;20036;-45
2023/10/08 03:18:15;;;;;;;8.90;3.80;;;;;;;-146.35;100.00;61140.38;5024333;28;20052;-45
2023/10/08 03:20:45;;;;;;;7.78;3.90;;;;;;;-146.35;100.00;61140.38;5038371;28;20036;-42
2023/10/08 03:23:23;;;;;;;6.03;3.40;;;;;;;-146.35;100.00;61140.38;5023916;28;20162;-44
2023/10/08 03:26:01;;;;;;;7.97;3.78;;;;;;;-146.35;100.00;61140.38;5023383;28;20037;-46
2023/10/08 03:28:34;;;;;;;7.40;3.78;;;;;;;-146.35;100.00;61140.38;5023543;28;20103;-43
2023/10/08 03:31:13;;;;;;;8.80;3.50;;;;;;;-146.35;100.00;61140.38;5024121;28;20017;-43
2023/10/08 03:33:39;;;;;;;7.50;3.90;;;;;;;-146.35;100.00;61140.38;5021211;28;20048;-46
2023/10/08 03:36:14;;;;;;;7.50;3.60;;;;;;;-146.35;100.00;61140.38;5055668;28;20036;-44
2023/10/08 03:38:49;;;;;;;8.25;3.55;;;;;;;-146.35;100.00;61140.38;5023541;28;20746;-45
2023/10/08 03:41:16;;;;;;;8.85;3.85;;;;;;;-146.35;100.00;61140.38;5024624;28;20039;-43
2023/10/08 03:46:30;;;;;;;6.35;3.67;;;;;;;-146.35;100.00;61140.38;5025290;28;20048;-44
2023/10/08 03:48:57;;;;;;;9.27;4.00;;;;;;;-146.35;100.00;61140.38;5039162;28;20043;-45
2023/10/08 03:51:27;;;;;;;7.35;3.30;;;;;;;-146.35;100.00;61140.38;5025061;28;20029;-44
2023/10/08 03:54:06;;;;;;;6.95;3.67;;;;;;;-146.35;100.00;61140.38;5024494;28;20052;-44
2023/10/08 03:56:32;;;;;;;6.40;3.47;;;;;;;-146.35;100.00;61140.38;5025202;28;21469;-44
2023/10/08 03:59:12;;;;;;;6.85;3.70;;;;;;;-146.35;100.00;61140.38;5022961;28;20040;-43
2023/10/08 04:01:42;;;;;;;7.00;3.55;;;;;;;-146.35;100.00;61140.38;5020796;28;20402;-44
2023/10/08 04:04:14;;;;;;;7.97;3.90;;;;;;;-146.35;100.00;61140.38;5023101;28;20086;-43
2023/10/08 04:06:48;;;;;;;7.03;3.63;;;;;;;-146.35;100.00;61140.38;5022900;28;20870;-44
2023/10/08 04:09:23;;;;;;;10.07;4.00;;;;;;;-146.35;100.00;61140.38;5023207;28;20472;-44
2023/10/08 04:11:53;;;;;;;8.82;3.70;;;;;;;-146.35;100.00;61140.38;5023569;28;20387;-44
2023/10/08 04:14:19;;;;;;;6.28;3.55;;;;;;;-146.35;100.00;61140.38;5023368;28;20037;-45
2023/10/08 04:16:45;;;;;;;7.20;3.55;;;;;;;-146.35;100.00;61140.38;5022708;28;20024;-44
2023/10/08 04:19:11;;;;;;;8.10;3.88;;;;;;;-146.35;100.00;61140.38;5022063;28;20113;-44
2023/10/08 04:21:39;;;;;;;7.72;3.90;;;;;;;-146.35;100.00;61140.38;5022343;28;20035;-45
2023/10/08 04:24:06;;;;;;;8.32;3.92;;;;;;;-146.35;100.00;61140.38;5022726;28;20210;-46
2023/10/08 04:26:32;;;;;;;7.90;3.90;;;;;;;-146.35;100.00;61140.38;5029650;28;20821;-45
2023/10/08 04:29:01;;;;;;;6.97;3.80;;;;;;;-146.35;100.00;61140.38;5022364;28;20066;-44
2023/10/08 04:31:37;;;;;;;8.88;3.83;;;;;;;-146.35;100.00;61140.38;5022701;28;20489;-45
2023/10/08 04:34:09;;;;;;;7.95;3.85;;;;;;;-146.35;100.00;61140.38;5023112;28;20072;-45
2023/10/08 04:36:38;;;;;;;9.63;3.85;;;;;;;-146.35;100.00;61140.38;5022426;28;20052;-45
2023/10/08 04:39:12;;;;;;;8.57;4.10;;;;;;;-146.35;100.00;61140.38;5020927;28;20368;-43
2023/10/08 04:41:45;;;;;;;9.20;4.00;;;;;;;-146.35;100.00;61140.38;5022228;28;20496;-44
2023/10/08 04:44:15;;;;;;;7.57;3.70;;;;;;;-146.35;100.00;61140.38;5022184;28;20036;-46
2023/10/08 04:46:47;;;;;;;7.53;3.92;;;;;;;-146.35;100.00;61140.38;5021087;28;20032;-45
2023/10/08 04:49:28;;;;;;;9.00;3.75;;;;;;;-146.35;100.00;61140.38;5022009;28;20047;-44
2023/10/08 04:51:59;;;;;;;8.38;4.10;;;;;;;-146.35;100.00;61140.38;5021900;28;20132;-45
2023/10/08 04:54:31;;;;;;;8.98;4.18;;;;;;;-146.35;100.00;61140.38;5022563;28;20044;-45
2023/10/08 04:57:00;;;;;;;9.60;3.92;;;;;;;-146.35;100.00;61140.38;5022715;28;20036;-44
2023/10/08 04:59:32;;;;;;;7.85;4.13;;;;;;;-146.35;100.00;61140.38;5022828;28;20043;-45
2023/10/08 05:02:34;;;;;;;7.72;3.85;;;;;;;-146.35;100.00;61140.38;5021898;28;20548;-47
2023/10/08 05:08:00;;;;;;;8.32;4.07;;;;;;;-146.35;100.00;61140.38;5022455;28;20040;-46
2023/10/08 05:15:37;;;;;;;6.57;3.70;;;;;;;-146.35;100.00;61140.38;5022726;28;21094;-43
2023/10/08 05:28:29;;;;;;;8.63;4.20;;;;;;;-146.35;100.00;61140.38;5021681;28;20496;-43
2023/10/08 05:31:11;;;;;;;7.30;3.90;;;;;;;-146.35;100.00;61140.38;5020926;28;20041;-44
2023/10/08 05:40:13;;;;;;;8.73;4.22;;;;;;;-146.35;100.00;61140.38;5011778;28;20037;-46
2023/10/08 05:42:20;;;;;;;7.70;3.88;;;;;;;-146.35;100.00;61140.38;5015883;28;20044;-46
2023/10/08 05:44:50;;;;;;;9.57;4.28;;;;;;;-146.35;100.00;61140.38;5022295;28;20572;-46
2023/10/08 05:49:54;;;;;;;7.30;3.90;;;;;;;-146.35;100.00;61140.38;5022721;28;20156;-44
2023/10/08 05:52:40;;;;;;;8.73;3.97;;;;;;;-146.35;100.00;61140.38;5021590;28;20397;-44
2023/10/08 05:55:15;;;;;;;7.25;3.90;;;;;;;-146.35;100.00;61140.38;5021186;28;20623;-45
2023/10/08 05:57:46;;;;;;;8.70;3.75;;;;;;;-146.35;100.00;61140.38;5021920;28;20573;-45
2023/10/08 06:13:13;;;;;;;7.70;3.75;;;;;;;-146.35;100.00;61140.38;5025852;28;20068;-45
2023/10/08 06:15:47;;;;;;;6.90;3.63;;;;;;;-146.35;100.00;61140.38;5025008;28;20123;-46
2023/10/08 06:18:14;;;;;;;8.95;3.90;;;;;;;-146.35;100.00;61140.38;5024962;28;20032;-45
2023/10/08 06:20:43;;;;;;;6.72;3.40;;;;;;;-146.35;100.00;61140.38;5031970;28;21566;-46
2023/10/08 06:23:11;;;;;;;9.05;3.63;;;;;;;-146.35;100.00;61140.38;5025919;28;20151;-47
2023/10/08 06:25:44;;;;;;;7.38;3.80;;;;;;;-146.35;100.00;61140.38;5025414;28;20044;-44
2023/10/08 06:28:15;;;;;;;6.88;3.20;;;;;;;-146.35;100.00;61140.38;5024768;28;20056;-45
2023/10/08 06:30:40;;;;;;;8.48;3.58;;;;;;;-146.35;100.00;61140.38;5025511;28;20189;-47
2023/10/08 06:33:10;;;;;;;7.57;3.40;;;;;;;-146.35;100.00;61140.38;5025098;28;20036;-44
2023/10/08 06:35:36;;;;;;;7.88;3.60;;;;;;;-146.35;100.00;61140.38;5025160;28;20065;-45
2023/10/08 06:38:07;;;;;;;6.53;3.50;;;;;;;-146.35;100.00;61140.38;5025237;28;20093;-44
2023/10/08 06:43:11;;;;;;;7.55;3.53;;;;;;;-146.35;100.00;61140.38;5023869;28;20041;-44
2023/10/08 06:45:43;;;;;;;9.13;3.55;;;;;;;-146.35;100.00;61140.38;5024562;28;20083;-44
2023/10/08 06:48:08;;;;;;;;;;;;;;;-146.35;100.00;61140.38;5025582;28;20055;-44
2023/10/08 06:50:34;;;;;;;7.47;3.28;;;;;;;-146.35;100.00;61140.38;5024982;28;20520;-43
2023/10/08 06:53:05;;;;;;;7.93;3.47;;;;;;;-146.35;100.00;61140.38;5024679;28;21414;-44
2023/10/08 06:55:31;;;;;;;8.23;3.50;;;;;;;-146.35;100.00;61140.38;5023974;28;20587;-44
2023/10/08 06:57:56;;;;;;;9.32;3.55;;;;;;;-146.35;100.00;61140.38;5024027;28;20253;-42
2023/10/08 07:00:38;;;;;;;10.75;3.60;;;;;;;-146.35;100.00;61140.38;5022885;28;20405;-45
2023/10/08 07:03:03;;;;;;;;;;;;;;;-146.35;100.00;61140.38;5051071;28;20055;-46
2023/10/08 07:05:29;;;;;;;7.65;3.25;;;;;;;-146.35;100.00;61140.38;5021615;28;19924;-43
2023/10/08 07:07:55;;;;;;;8.52;3.25;;;;;;;-146.35;100.00;61140.38;5022782;28;20033;-44
2023/10/08 07:10:23;;;;;;;7.88;3.00;;;;;;;-146.35;100.00;61140.38;5024753;28;20040;-46
2023/10/08 07:12:49;;;;;;;7.13;3.10;;;;;;;-146.35;100.00;61140.38;5022702;28;20122;-43
2023/10/08 07:15:20;;;;;;;6.78;2.80;;;;;;;-146.35;100.00;61140.38;5024789;28;20118;-43
2023/10/08 07:17:46;;;;;;;7.40;3.13;;;;;;;-146.35;100.00;61140.38;5021863;28;20712;-46
2023/10/08 07:20:14;;;;;;;7.13;2.88;;;;;;;-146.35;100.00;61140.38;5024768;28;20036;-43
2023/10/08 07:22:43;;;;;;;6.65;3.10;;;;;;;-146.35;100.00;61140.38;5023955;28;20335;-43
2023/10/08 07:25:09;;;;;;;6.38;2.97;;;;;;;-146.35;100.00;61140.38;5023813;28;20068;-44
2023/10/08 07:27:37;;;;;;;9.27;3.30;;;;;;;-146.35;100.00;61140.38;5023796;28;20576;-47
2023/10/08 07:30:10;;;;;;;6.70;2.72;;;;;;;-146.35;100.00;61140.38;5025078;28;20033;-43
2023/10/08 07:32:38;;;;;;;6.78;2.90;;;;;;;-146.35;100.00;61140.38;5022990;28;20036;-45
2023/10/08 07:37:58;;;;;;;6.35;2.97;;;;;;;-146.35;100.00;61140.38;5018995;28;20037;-44
2023/10/08 07:40:29;;;;;;;8.38;2.83;;;;;;;-146.35;100.00;61140.38;5023914;28;20036;-43
2023/10/08 07:42:54;;;;;;;6.67;2.50;;;;;;;-146.35;100.00;61140.38;5023536;28;20307;-46
2023/10/08 07:45:21;;;;;;;7.20;2.55;;;;;;;-146.35;100.00;61140.38;5023654;28;20298;-45
2023/10/08 07:47:47;;;;;;;6.20;2.63;;;;;;;-146.35;100.00;61140.38;5022815;28;20245;-45
2023/10/08 07:50:15;;;;;;;8.07;2.88;;;;;;;-146.35;100.00;61140.38;5023024;28;20536;-45
2023/10/08 07:52:44;;;;;;;7.38;2.80;;;;;;;-146.35;100.00;61140.38;5023644;28;20417;-47
2023/10/08 07:55:10;;;;;;;6.20;2.53;;;;;;;-146.35;100.00;61140.38;5023586;28;20151;-42
2023/10/08 07:57:35;;;;;;;6.13;2.55;;;;;;;-146.35;100.00;61140.38;5023007;28;20035;-46
2023/10/08 08:00:22;;;;;;;5.30;2.50;;;;;;;-146.35;100.00;61140.38;5053758;28;20089;-44
2023/10/08 08:02:48;;;;;;;5.15;2.58;;;;;;;-146.35;100.00;61140.38;5022563;28;20062;-44
2023/10/08 08:05:16;;;;;;;4.90;2.60;;;;;;;-146.35;100.00;61140.38;5023080;28;20091;-45
2023/10/08 08:07:46;;;;;;;6.30;2.78;;;;;;;-146.35;100.00;61140.38;5023693;28;20500;-44
2023/10/08 08:10:12;;;;;;;5.82;2.70;;;;;;;-146.35;100.00;61140.38;5021781;28;20245;-44
2023/10/08 08:12:37;;;;;;;7.25;2.67;;;;;;;-146.35;100.00;61140.38;5023216;28;20029;-43
2023/10/08 08:15:14;;;;;;;6.70;2.70;;;;;;;-146.35;100.00;61140.38;5023517;28;21091;-44
2023/10/08 08:17:41;;;;;;;4.30;2.13;;;;;;;-146.35;100.00;61140.38;5023215;28;20049;-43
2023/10/08 08:20:17;;;;;;;6.78;2.60;;;;;;;-146.35;100.00;61140.38;5020712;28;20555;-44
2023/10/08 08:22:49;;;;;;;5.20;2.30;;;;;;;-146.35;100.00;61140.38;5023184;28;20339;-44
2023/10/08 08:25:16;;;;;;;6.85;2.40;;;;;;;-146.35;100.00;61140.38;5023734;28;20666;-44
2023/10/08 08:27:46;;;;;;;5.45;2.35;;;;;;;-146.35;100.00;61140.38;5023661;28;20051;-43
2023/10/08 08:30:15;;;;;;;14.57;3.00;;;;;;;-146.35;100.00;61140.38;5023379;28;20099;-45
2023/10/08 08:32:44;;;;;;;8.48;2.60;;;;;;;-146.35;100.00;61140.38;5023807;28;20048;-41
2023/10/08 08:35:11;;;;;;;10.93;3.10;;;;;;;-146.35;100.00;61140.38;5021658;28;20048;-42
2023/10/08 08:37:40;;;;;;;9.48;2.60;;;;;;;-146.35;100.00;61140.38;5023613;28;21710;-42
2023/10/08 08:40:17;;;;;;;7.43;2.70;;;;;;;-146.35;100.00;61140.38;5022497;28;20646;-45
2023/10/08 08:42:52;;;;;;;8.95;2.47;;;;;;;-146.35;100.00;61140.38;5024048;28;20691;-45
2023/10/08 08:45:26;;;;;;;9.25;2.80;;;;;;;-146.35;100.00;61140.38;5023469;28;20090;-46
2023/10/08 08:47:53;;;;;;;8.25;2.55;;;;;;;-146.35;100.00;61140.38;5022225;28;20032;-47
2023/10/08 08:50:19;;;;;;;7.68;2.80;;;;;;;-146.35;100.00;61140.38;5023644;28;20030;-42
2023/10/08 08:52:48;;;;;;;9.15;2.65;;;;;;;-146.35;100.00;61140.38;5022550;28;20120;-43
2023/10/08 08:55:14;;;;;;;7.30;2.50;;;;;;;-146.35;100.00;61140.38;5023391;28;20029;-45
2023/10/08 08:57:44;;;;;;;7.45;2.40;;;;;;;-146.35;100.00;61140.38;5022339;28;20028;-44
2023/10/08 09:00:14;;;;;;;6.60;2.72;;;;;;;-146.35;100.00;61140.38;5022829;28;20618;-44
2023/10/08 09:02:40;;;;;;;7.38;2.33;;;;;;;-146.35;100.00;61140.38;5053688;28;20287;-47
2023/10/08 09:07:58;;;;;;;5.80;2.75;;;;;;;-146.35;100.00;61140.38;5022239;28;20563;-45
2023/10/08 09:10:28;;;;;;;5.85;2.30;;;;;;;-146.35;100.00;61140.38;5021608;28;20037;-42
2023/10/08 09:12:59;;;;;;;5.32;2.30;;;;;;;-146.35;100.00;61140.38;5021208;28;20040;-43
2023/10/08 09:15:28;;;;;;;4.97;2.20;;;;;;;-146.35;100.00;61140.38;5020490;28;20033;-44
2023/10/08 09:17:56;;;;;;;5.68;2.63;;;;;;;-146.35;100.00;61140.38;5023176;28;20534;-43
2023/10/08 09:20:22;;;;;;;6.88;2.60;;;;;;;-146.35;100.00;61140.38;5022929;28;20036;-44
2023/10/08 09:23:07;;;;;;;7.25;2.50;;;;;;;-146.35;100.00;61140.38;5021924;28;20094;-44
2023/10/08 09:25:36;;;;;;;8.20;2.42;;;;;;;-146.35;100.00;61140.38;5022300;28;21305;-44
2023/10/08 09:28:07;;;;;;;6.45;2.53;;;;;;;-146.35;100.00;61140.38;5021525;28;20052;-44
2023/10/08 09:30:37;;;;;;;8.65;2.60;;;;;;;-146.35;100.00;61140.38;5022552;28;21331;-44
2023/10/08 09:33:04;;;;;;;7.37;2.90;;;;;;;-146.35;100.00;61140.38;5054200;27;20036;-44
2023/10/08 09:35:31;;;;;;;13.95;3.05;;;;;;;-146.35;100.00;61140.38;5021843;28;20067;-46
2023/10/08 09:37:57;;;;;;;11.10;3.03;;;;;;;-146.35;100.00;61140.38;5019375;28;20036;-46
2023/10/08 09:40:24;;;;;;;18.92;4.32;;;;;;;-146.35;100.00;61140.38;5021184;28;20032;-48
2023/10/08 09:42:50;;;;;;;16.48;4.20;;;;;;;-146.35;100.00;61140.38;5021673;28;20037;-44
2023/10/08 09:45:16;;;;;;;13.23;4.90;;;;;;;-146.35;100.00;61140.38;5022297;28;20032;-44
2023/10/08 09:47:49;;;;;;;15.55;4.47;;;;;;;-146.35;100.00;61140.38;5036360;28;20519;-42
2023/10/08 09:50:15;;;;;;;17.95;4.30;;;;;;;-146.35;100.00;61140.38;5022377;28;20040;-42
2023/10/08 09:53:16;;;;;;;13.75;4.22;;;;;;;-146.35;100.00;61140.38;5022249;28;20040;-43
2023/10/08 09:55:54;;;;;;;14.60;4.10;;;;;;;-146.35;100.00;61140.38;5015390;28;20892;-43
2023/10/08 09:58:20;;;;;;;16.52;4.00;;;;;;;-146.35;100.00;61140.38;5022214;28;20039;-42
2023/10/08 10:00:48;;;;;;;15.32;4.22;;;;;;;-146.35;100.00;61140.38;5022396;28;20033;-42
2023/10/08 10:03:14;;;;;;;9.80;3.83;;;;;;;-146.35;100.00;61140.38;5037095;28;20029;-43
2023/10/08 10:05:42;;;;;;;11.05;3.63;;;;;;;-146.35;100.00;61140.38;5021669;28;20420;-42
2023/10/08 10:08:09;;;;;;;15.57;3.88;;;;;;;-146.35;100.00;61140.38;5022011;28;20580;-41
2023/10/08 10:10:39;;;;;;;13.32;3.97;;;;;;;-146.35;100.00;61140.38;5021651;28;20036;-42
2023/10/08 10:13:09;;;;;;;12.20;4.25;;;;;;;-146.35;100.00;61140.38;5021971;28;20030;-42
2023/10/08 10:15:37;;;;;;;12.73;3.80;;;;;;;-146.35;100.00;61140.38;5021904;28;20476;-42
2023/10/08 10:18:18;;;;;;;12.80;4.15;;;;;;;-146.35;100.00;61140.38;5037184;28;20033;-44
2023/10/08 10:20:45;;;;;;;11.88;3.50;;;;;;;-146.35;100.00;61140.38;5022529;28;20041;-42
2023/10/08 10:23:43;;;;;;;10.25;3.58;;;;;;;-146.35;100.00;61140.38;5021788;28;20039;-42
2023/10/08 10:26:28;;;;;;;10.88;3.53;;;;;;;-146.35;100.00;61140.38;5022374;28;20029;-42
2023/10/08 10:29:14;;;;;;;10.48;3.35;;;;;;;-146.35;100.00;61140.38;5022796;28;20535;-43
2023/10/08 10:31:53;;;;;;;10.88;3.30;;;;;;;-146.35;100.00;61140.38;5021685;28;20886;-43
2023/10/08 10:34:28;;;;;;;6.93;2.72;;;;;;;-146.35;100.00;61140.38;5021824;28;20044;-42
2023/10/08 10:36:59;;;;;;;8.15;3.10;;;;;;;-146.35;100.00;61140.38;5022992;28;20105;-43
2023/10/08 10:39:31;;;;;;;;;;;;;;;-146.35;100.00;61140.38;5022179;28;20135;-42
2023/10/08 10:42:01;;;;;;;8.15;3.22;;;;;;;-146.35;100.00;61140.38;5022981;28;20207;-44
2023/10/08 10:44:30;;;;;;;9.65;2.90;;;;;;;-146.35;100.00;61140.38;5021500;28;20485;-42
2023/10/08 10:49:53;;;;;;;8.32;2.97;;;;;;;-146.35;100.00;61140.38;5019816;28;20051;-42
2023/10/08 10:52:32;;;;;;;8.90;3.05;;;;;;;-146.35;100.00;61140.38;5025391;28;20094;-43
2023/10/08 10:55:31;;;;;;;7.22;2.95;;;;;;;-146.35;100.00;61140.38;5025363;28;20670;-44
2023/10/08 10:57:56;;;;;;;6.45;2.60;;;;;;;-146.35;100.00;61140.38;5024397;28;20037;-44
2023/10/08 11:02:59;;;;;;;8.50;2.55;;;;;;;-146.35;100.00;61140.38;5025320;28;20560;-43
2023/10/08 11:05:28;;;;;;;6.85;2.60;;;;;;;-146.35;100.00;61140.38;5055910;28;21476;-44
2023/10/08 11:08:04;;;;;;;7.78;2.70;;;;;;;-146.35;100.00;61140.38;5025031;28;20045;-44
2023/10/08 11:10:31;;;;;;;7.72;2.83;;;;;;;-146.35;100.00;61140.38;5024735;28;20029;-44
2023/10/08 11:13:00;;;;;;;4.85;2.60;;;;;;;-146.35;100.00;61140.38;5024330;28;20408;-43
2023/10/08 11:15:37;;;;;;;6.07;2.50;;;;;;;-146.35;100.00;61140.38;5024289;28;20043;-44
2023/10/08 11:18:08;;;;;;;6.72;2.78;;;;;;;-146.35;100.00;61140.38;5023998;28;20048;-44
2023/10/08 11:20:37;;;;;;;8.63;3.10;;;;;;;-146.35;100.00;61140.38;5025610;28;20485;-43
2023/10/08 11:23:17;;;;;;;5.40;2.70;;;;;;;-146.35;100.00;61140.38;5024539;28;20064;-44
2023/10/08 11:25:59;;;;;;;6.55;2.70;;;;;;;-146.35;100.00;61140.38;5026103;28;20056;-43
2023/10/08 11:28:27;;;;;;;5.85;2.47;;;;;;;-146.35;100.00;61140.38;5024592;28;20528;-44
2023/10/08 11:30:53;;;;;;;6.13;2.33;;;;;;;-146.35;100.00;61140.38;5024633;28;20523;-43
2023/10/08 11:33:19;;;;;;;7.35;2.92;;;;;;;-146.35;100.00;61140.38;5024385;28;20032;-44
2023/10/08 11:35:58;;;;;;;6.95;2.30;;;;;;;-146.35;100.00;61140.38;5025699;28;20443;-43
2023/10/08 11:38:24;;;;;;;7.15;2.70;;;;;;;-146.35;100.00;61140.38;5024425;28;20033;-45
2023/10/08 11:40:56;;;;;;;7.97;2.78;;;;;;;-146.35;100.00;61140.38;5024327;28;20068;-45
2023/10/08 11:43:22;;;;;;;7.82;2.95;;;;;;;-146.35;100.00;61140.38;5024881;28;21484;-43
2023/10/08 11:45:48;;;;;;;4.63;2.35;;;;;;;-146.35;100.00;61140.38;5020404;28;20444;-42
2023/10/08 11:48:17;;;;;;;6.68;2.60;;;;;;;-146.35;100.00;61140.38;5021196;28;20397;-42
2023/10/08 11:50:43;;;;;;;7.40;2.83;;;;;;;-146.35;100.00;61140.38;5023454;28;20036;-42
2023/10/08 11:53:11;;;;;;;4.75;2.45;;;;;;;-146.35;100.00;61140.38;5024425;28;20033;-42
2023/10/08 11:55:38;;;;;;;6.00;2.50;;;;;;;-146.35;100.00;61140.38;5023493;28;21411;-46
2023/10/08 11:58:11;;;;;;;5.72;2.67;;;;;;;-146.35;100.00;61140.38;5022702;28;20033;-44
2023/10/08 12:00:44;;;;;;;7.57;3.00;;;;;;;-146.35;100.00;61140.38;5023766;28;20118;-43
2023/10/08 12:03:17;;;;;;;13.45;7.53;;;;;;;-146.35;100.00;61140.38;5038834;28;20051;-43
2023/10/08 12:05:52;;;;;;;43.72;29.50;;;;;;;-146.35;100.00;61140.38;5022687;28;20672;-42
2023/10/08 12:08:22;;;;;;;65.28;48.58;;;;;;;-146.35;100.00;61140.38;5023273;28;20501;-42
2023/10/08 12:10:49;;;;;;;111.10;80.82;;;;;;;-146.35;100.00;61140.38;5023409;28;20062;-42
2023/10/08 12:13:18;;;;;;;74.35;53.45;;;;;;;-146.35;100.00;61140.38;5023182;28;20159;-43
2023/10/08 12:15:44;;;;;;;113.80;83.57;;;;;;;-146.35;100.00;61140.38;5053554;28;20167;-42
2023/10/08 12:18:25;;;;;;;124.90;88.82;;;;;;;-146.35;100.00;61140.38;5022903;28;20036;-43
2023/10/08 12:20:51;;;;;;;126.15;93.60;;;;;;;-146.35;100.00;61140.38;5022775;28;20625;-43
2023/10/08 12:23:26;;;;;;;135.73;99.40;;;;;;;-146.35;100.00;61140.38;5022637;28;20032;-43
2023/10/08 12:25:54;;;;;;;127.57;97.53;;;;;;;-146.35;100.00;61140.38;5023456;28;20504;-44